sensor_id;sensor_type;location;lat;lon;timestamp;temperature;humidity
21540;DHT22;10931;52.164;5.518;2023-03-14T00:01:17;18.20;61.70
21540;DHT22;10931;52.164;5.518;2023-03-14T00:03:44;18.20;61.70
21540;DHT22;10931;52.164;5.518;2023-03-14T00:06:10;18.30;61.80
21540;DHT22;10931;52.164;5.518;2023-03-14T00:08:37;18.30;61.80
21540;DHT22;10931;52.164;5.518;2023-03-14T00:11:11;18.30;61.80
21540;DHT22;10931;52.164;5.518;2023-03-14T00:13:38;18.20;61.70
21540;DHT22;10931;52.164;5.518;2023-03-14T00:16:10;18.20;61.80
21540;DHT22;10931;52.164;5.518;2023-03-14T00:18:39;18.30;61.80
21540;DHT22;10931;52.164;5.518;2023-03-14T00:21:06;18.20;61.70
21540;DHT22;10931;52.164;5.518;2023-03-14T00:23:34;18.20;61.70
21540;DHT22;10931;52.164;5.518;2023-03-14T00:26:05;18.20;61.70
21540;DHT22;10931;52.164;5.518;2023-03-14T00:28:36;18.30;61.80
21540;DHT22;10931;52.164;5.518;2023-03-14T00:31:06;18.20;61.70
21540;DHT22;10931;52.164;5.518;2023-03-14T00:33:35;18.20;61.70
21540;DHT22;10931;52.164;5.518;2023-03-14T00:36:07;18.20;61.70
21540;DHT22;10931;52.164;5.518;2023-03-14T00:38:34;18.20;61.70
21540;DHT22;10931;52.164;5.518;2023-03-14T00:41:04;18.20;61.70
21540;DHT22;10931;52.164;5.518;2023-03-14T00:43:30;18.20;61.70
21540;DHT22;10931;52.164;5.518;2023-03-14T00:45:58;18.20;61.70
21540;DHT22;10931;52.164;5.518;2023-03-14T00:48:24;18.20;61.70
21540;DHT22;10931;52.164;5.518;2023-03-14T00:50:50;18.20;61.70
21540;DHT22;10931;52.164;5.518;2023-03-14T00:53:19;18.20;61.70
21540;DHT22;10931;52.164;5.518;2023-03-14T00:55:46;18.20;61.70
21540;DHT22;10931;52.164;5.518;2023-03-14T00:58:13;18.20;61.70
21540;DHT22;10931;52.164;5.518;2023-03-14T01:00:49;18.20;61.70
21540;DHT22;10931;52.164;5.518;2023-03-14T01:03:19;18.20;61.70
21540;DHT22;10931;52.164;5.518;2023-03-14T01:06:11;18.20;61.70
21540;DHT22;10931;52.164;5.518;2023-03-14T01:08:37;18.20;61.70
21540;DHT22;10931;52.164;5.518;2023-03-14T01:11:21;18.20;61.70
21540;DHT22;10931;52.164;5.518;2023-03-14T01:13:47;18.20;61.80
21540;DHT22;10931;52.164;5.518;2023-03-14T01:16:16;18.20;61.70
21540;DHT22;10931;52.164;5.518;2023-03-14T01:18:46;18.20;61.70
21540;DHT22;10931;52.164;5.518;2023-03-14T01:21:20;18.10;61.70
21540;DHT22;10931;52.164;5.518;2023-03-14T01:23:53;18.20;61.80
21540;DHT22;10931;52.164;5.518;2023-03-14T01:26:22;18.20;61.70
21540;DHT22;10931;52.164;5.518;2023-03-14T01:28:52;18.10;61.70
21540;DHT22;10931;52.164;5.518;2023-03-14T01:31:18;18.10;61.70
21540;DHT22;10931;52.164;5.518;2023-03-14T01:33:45;18.10;61.70
21540;DHT22;10931;52.164;5.518;2023-03-14T01:36:19;18.10;61.70
21540;DHT22;10931;52.164;5.518;2023-03-14T01:38:50;18.10;61.70
21540;DHT22;10931;52.164;5.518;2023-03-14T01:41:20;18.10;61.70
21540;DHT22;10931;52.164;5.518;2023-03-14T01:46:52;18.10;61.70
21540;DHT22;10931;52.164;5.518;2023-03-14T01:52:12;18.10;61.70
21540;DHT22;10931;52.164;5.518;2023-03-14T01:54:44;18.10;61.70
21540;DHT22;10931;52.164;5.518;2023-03-14T01:57:31;18.10;61.70
21540;DHT22;10931;52.164;5.518;2023-03-14T02:00:28;18.10;61.70
21540;DHT22;10931;52.164;5.518;2023-03-14T02:03:11;18.10;61.70
21540;DHT22;10931;52.164;5.518;2023-03-14T02:05:40;18.10;61.70
21540;DHT22;10931;52.164;5.518;2023-03-14T02:08:21;18.10;61.70
21540;DHT22;10931;52.164;5.518;2023-03-14T02:10:54;18.10;61.70
21540;DHT22;10931;52.164;5.518;2023-03-14T02:13:40;18.10;61.70
21540;DHT22;10931;52.164;5.518;2023-03-14T02:19:25;18.10;61.70
21540;DHT22;10931;52.164;5.518;2023-03-14T02:22:02;18.10;61.70
21540;DHT22;10931;52.164;5.518;2023-03-14T02:27:57;18.10;61.70
21540;DHT22;10931;52.164;5.518;2023-03-14T02:30:34;18.10;61.70
21540;DHT22;10931;52.164;5.518;2023-03-14T02:33:06;18.10;61.70
21540;DHT22;10931;52.164;5.518;2023-03-14T02:36:04;18.10;61.70
21540;DHT22;10931;52.164;5.518;2023-03-14T02:41:28;18.10;61.70
21540;DHT22;10931;52.164;5.518;2023-03-14T02:43:56;18.00;61.60
21540;DHT22;10931;52.164;5.518;2023-03-14T02:46:29;18.10;61.70
21540;DHT22;10931;52.164;5.518;2023-03-14T02:49:10;18.00;61.70
21540;DHT22;10931;52.164;5.518;2023-03-14T02:51:57;18.00;61.70
21540;DHT22;10931;52.164;5.518;2023-03-14T02:54:24;18.00;61.70
21540;DHT22;10931;52.164;5.518;2023-03-14T02:56:50;18.00;61.60
21540;DHT22;10931;52.164;5.518;2023-03-14T02:59:16;18.10;61.70
21540;DHT22;10931;52.164;5.518;2023-03-14T03:01:41;18.00;61.70
21540;DHT22;10931;52.164;5.518;2023-03-14T03:04:07;18.00;61.60
21540;DHT22;10931;52.164;5.518;2023-03-14T03:06:36;18.00;61.70
21540;DHT22;10931;52.164;5.518;2023-03-14T03:09:14;18.00;61.60
21540;DHT22;10931;52.164;5.518;2023-03-14T03:11:42;18.00;61.70
21540;DHT22;10931;52.164;5.518;2023-03-14T03:14:08;18.00;61.60
21540;DHT22;10931;52.164;5.518;2023-03-14T03:16:36;18.00;61.70
21540;DHT22;10931;52.164;5.518;2023-03-14T03:19:02;18.00;61.60
21540;DHT22;10931;52.164;5.518;2023-03-14T03:21:28;18.00;61.70
21540;DHT22;10931;52.164;5.518;2023-03-14T03:23:53;18.00;61.70
21540;DHT22;10931;52.164;5.518;2023-03-14T03:26:19;18.00;61.70
21540;DHT22;10931;52.164;5.518;2023-03-14T03:28:45;18.00;61.70
21540;DHT22;10931;52.164;5.518;2023-03-14T03:31:29;18.00;61.60
21540;DHT22;10931;52.164;5.518;2023-03-14T03:33:55;18.00;61.60
21540;DHT22;10931;52.164;5.518;2023-03-14T03:36:25;18.00;61.70
21540;DHT22;10931;52.164;5.518;2023-03-14T03:38:58;18.00;61.60
21540;DHT22;10931;52.164;5.518;2023-03-14T03:41:24;18.00;61.60
21540;DHT22;10931;52.164;5.518;2023-03-14T03:43:52;18.00;61.70
21540;DHT22;10931;52.164;5.518;2023-03-14T03:46:19;18.00;61.70
21540;DHT22;10931;52.164;5.518;2023-03-14T03:48:45;18.00;61.70
21540;DHT22;10931;52.164;5.518;2023-03-14T03:51:38;18.00;61.70
21540;DHT22;10931;52.164;5.518;2023-03-14T03:54:04;18.00;61.70
21540;DHT22;10931;52.164;5.518;2023-03-14T03:56:30;18.00;61.60
21540;DHT22;10931;52.164;5.518;2023-03-14T03:58:56;18.00;62.50
21540;DHT22;10931;52.164;5.518;2023-03-14T04:01:22;18.00;61.60
21540;DHT22;10931;52.164;5.518;2023-03-14T04:03:48;18.00;61.60
21540;DHT22;10931;52.164;5.518;2023-03-14T04:06:18;18.00;61.70
21540;DHT22;10931;52.164;5.518;2023-03-14T04:08:44;18.00;61.60
21540;DHT22;10931;52.164;5.518;2023-03-14T04:11:10;18.00;61.60
21540;DHT22;10931;52.164;5.518;2023-03-14T04:13:39;18.00;61.60
21540;DHT22;10931;52.164;5.518;2023-03-14T04:16:14;18.00;61.60
21540;DHT22;10931;52.164;5.518;2023-03-14T04:18:41;18.00;61.70
21540;DHT22;10931;52.164;5.518;2023-03-14T04:21:11;18.00;61.60
21540;DHT22;10931;52.164;5.518;2023-03-14T04:23:39;17.90;61.60
21540;DHT22;10931;52.164;5.518;2023-03-14T04:26:16;17.90;61.60
21540;DHT22;10931;52.164;5.518;2023-03-14T04:28:42;18.00;61.70
21540;DHT22;10931;52.164;5.518;2023-03-14T04:31:20;17.90;61.60
21540;DHT22;10931;52.164;5.518;2023-03-14T04:33:46;17.90;61.60
21540;DHT22;10931;52.164;5.518;2023-03-14T04:36:14;17.90;61.60
21540;DHT22;10931;52.164;5.518;2023-03-14T04:38:40;17.90;61.60
21540;DHT22;10931;52.164;5.518;2023-03-14T04:41:09;17.90;61.60
21540;DHT22;10931;52.164;5.518;2023-03-14T04:43:35;17.90;61.60
21540;DHT22;10931;52.164;5.518;2023-03-14T04:46:00;17.90;61.60
21540;DHT22;10931;52.164;5.518;2023-03-14T04:48:27;17.90;61.60
21540;DHT22;10931;52.164;5.518;2023-03-14T04:50:54;17.90;61.60
21540;DHT22;10931;52.164;5.518;2023-03-14T04:53:20;17.90;61.60
21540;DHT22;10931;52.164;5.518;2023-03-14T04:55:50;17.90;61.60
21540;DHT22;10931;52.164;5.518;2023-03-14T04:58:30;17.90;61.60
21540;DHT22;10931;52.164;5.518;2023-03-14T05:00:56;17.90;61.60
21540;DHT22;10931;52.164;5.518;2023-03-14T05:03:26;17.90;61.60
21540;DHT22;10931;52.164;5.518;2023-03-14T05:05:52;17.90;61.60
21540;DHT22;10931;52.164;5.518;2023-03-14T05:08:20;17.90;61.60
21540;DHT22;10931;52.164;5.518;2023-03-14T05:10:55;17.90;61.60
21540;DHT22;10931;52.164;5.518;2023-03-14T05:13:23;17.90;61.60
21540;DHT22;10931;52.164;5.518;2023-03-14T05:15:53;17.90;61.60
21540;DHT22;10931;52.164;5.518;2023-03-14T05:18:24;17.90;61.60
21540;DHT22;10931;52.164;5.518;2023-03-14T05:20:53;17.90;61.60
21540;DHT22;10931;52.164;5.518;2023-03-14T05:23:28;17.90;61.60
21540;DHT22;10931;52.164;5.518;2023-03-14T05:25:53;17.90;61.60
21540;DHT22;10931;52.164;5.518;2023-03-14T05:28:19;17.90;61.60
21540;DHT22;10931;52.164;5.518;2023-03-14T05:30:53;17.90;61.60
21540;DHT22;10931;52.164;5.518;2023-03-14T05:33:19;17.80;61.50
21540;DHT22;10931;52.164;5.518;2023-03-14T05:35:48;17.80;61.60
21540;DHT22;10931;52.164;5.518;2023-03-14T05:38:14;17.80;61.60
21540;DHT22;10931;52.164;5.518;2023-03-14T05:40:39;17.80;61.60
21540;DHT22;10931;52.164;5.518;2023-03-14T05:43:06;17.80;61.60
21540;DHT22;10931;52.164;5.518;2023-03-14T05:45:36;17.80;61.60
21540;DHT22;10931;52.164;5.518;2023-03-14T05:48:02;17.80;61.60
21540;DHT22;10931;52.164;5.518;2023-03-14T05:50:28;17.80;61.50
21540;DHT22;10931;52.164;5.518;2023-03-14T05:52:53;17.80;61.50
21540;DHT22;10931;52.164;5.518;2023-03-14T05:55:19;17.80;61.60
21540;DHT22;10931;52.164;5.518;2023-03-14T05:57:50;17.80;61.60
21540;DHT22;10931;52.164;5.518;2023-03-14T06:00:23;17.80;61.60
21540;DHT22;10931;52.164;5.518;2023-03-14T06:02:49;17.80;61.60
21540;DHT22;10931;52.164;5.518;2023-03-14T06:05:20;17.80;61.60
21540;DHT22;10931;52.164;5.518;2023-03-14T06:07:50;17.80;62.40
21540;DHT22;10931;52.164;5.518;2023-03-14T06:10:16;17.80;61.60
21540;DHT22;10931;52.164;5.518;2023-03-14T06:12:42;17.80;61.60
21540;DHT22;10931;52.164;5.518;2023-03-14T06:15:28;17.80;61.60
21540;DHT22;10931;52.164;5.518;2023-03-14T06:18:01;17.80;61.60
21540;DHT22;10931;52.164;5.518;2023-03-14T06:20:27;17.80;61.60
21540;DHT22;10931;52.164;5.518;2023-03-14T06:22:59;17.80;61.60
21540;DHT22;10931;52.164;5.518;2023-03-14T06:25:25;17.80;61.60
21540;DHT22;10931;52.164;5.518;2023-03-14T06:27:54;17.80;61.60
21540;DHT22;10931;52.164;5.518;2023-03-14T06:30:23;17.80;61.60
21540;DHT22;10931;52.164;5.518;2023-03-14T06:32:54;17.80;61.60
21540;DHT22;10931;52.164;5.518;2023-03-14T06:35:23;17.80;61.60
21540;DHT22;10931;52.164;5.518;2023-03-14T06:37:54;17.80;61.60
21540;DHT22;10931;52.164;5.518;2023-03-14T06:40:20;17.80;61.60
21540;DHT22;10931;52.164;5.518;2023-03-14T06:42:47;17.80;61.60
21540;DHT22;10931;52.164;5.518;2023-03-14T06:45:13;17.80;61.60
21540;DHT22;10931;52.164;5.518;2023-03-14T06:47:39;17.80;61.60
21540;DHT22;10931;52.164;5.518;2023-03-14T06:50:06;17.80;61.60
21540;DHT22;10931;52.164;5.518;2023-03-14T06:52:36;17.80;61.60
21540;DHT22;10931;52.164;5.518;2023-03-14T06:55:07;17.80;61.60
21540;DHT22;10931;52.164;5.518;2023-03-14T06:57:32;17.80;61.70
21540;DHT22;10931;52.164;5.518;2023-03-14T06:59:58;17.80;61.60
21540;DHT22;10931;52.164;5.518;2023-03-14T07:02:24;17.80;61.70
21540;DHT22;10931;52.164;5.518;2023-03-14T07:04:49;17.70;61.60
21540;DHT22;10931;52.164;5.518;2023-03-14T07:07:15;17.80;61.70
21540;DHT22;10931;52.164;5.518;2023-03-14T07:09:41;17.80;61.70
21540;DHT22;10931;52.164;5.518;2023-03-14T07:12:08;17.80;61.70
21540;DHT22;10931;52.164;5.518;2023-03-14T07:14:34;17.80;61.70
21540;DHT22;10931;52.164;5.518;2023-03-14T07:17:00;17.70;61.60
21540;DHT22;10931;52.164;5.518;2023-03-14T07:19:28;17.80;61.70
21540;DHT22;10931;52.164;5.518;2023-03-14T07:21:57;17.70;61.60
21540;DHT22;10931;52.164;5.518;2023-03-14T07:24:23;17.70;61.60
21540;DHT22;10931;52.164;5.518;2023-03-14T07:26:57;17.70;61.60
21540;DHT22;10931;52.164;5.518;2023-03-14T07:29:23;17.70;61.60
21540;DHT22;10931;52.164;5.518;2023-03-14T07:31:51;17.70;61.60
21540;DHT22;10931;52.164;5.518;2023-03-14T07:34:19;17.70;61.60
21540;DHT22;10931;52.164;5.518;2023-03-14T07:36:47;17.70;61.70
21540;DHT22;10931;52.164;5.518;2023-03-14T07:39:13;17.70;61.60
21540;DHT22;10931;52.164;5.518;2023-03-14T07:41:39;17.70;61.60
21540;DHT22;10931;52.164;5.518;2023-03-14T07:44:04;17.70;61.60
21540;DHT22;10931;52.164;5.518;2023-03-14T07:46:30;17.70;61.60
21540;DHT22;10931;52.164;5.518;2023-03-14T07:48:56;17.70;61.60
21540;DHT22;10931;52.164;5.518;2023-03-14T07:51:21;17.70;61.60
21540;DHT22;10931;52.164;5.518;2023-03-14T07:53:47;17.70;61.60
21540;DHT22;10931;52.164;5.518;2023-03-14T07:56:13;17.70;61.60
21540;DHT22;10931;52.164;5.518;2023-03-14T07:58:43;17.70;61.60
21540;DHT22;10931;52.164;5.518;2023-03-14T08:01:11;17.70;61.60
21540;DHT22;10931;52.164;5.518;2023-03-14T08:03:37;17.70;61.60
21540;DHT22;10931;52.164;5.518;2023-03-14T08:06:05;17.70;61.60
21540;DHT22;10931;52.164;5.518;2023-03-14T08:08:34;17.70;61.60
21540;DHT22;10931;52.164;5.518;2023-03-14T08:11:05;17.70;61.60
21540;DHT22;10931;52.164;5.518;2023-03-14T08:13:36;17.70;61.60
21540;DHT22;10931;52.164;5.518;2023-03-14T08:16:02;17.70;61.60
21540;DHT22;10931;52.164;5.518;2023-03-14T08:18:28;17.70;61.60
21540;DHT22;10931;52.164;5.518;2023-03-14T08:20:54;17.70;61.50
21540;DHT22;10931;52.164;5.518;2023-03-14T08:23:21;17.70;61.50
21540;DHT22;10931;52.164;5.518;2023-03-14T08:25:49;17.70;61.50
21540;DHT22;10931;52.164;5.518;2023-03-14T08:28:16;17.70;61.50
21540;DHT22;10931;52.164;5.518;2023-03-14T08:30:41;17.70;61.50
21540;DHT22;10931;52.164;5.518;2023-03-14T08:33:07;17.70;61.50
21540;DHT22;10931;52.164;5.518;2023-03-14T08:38:10;17.60;61.40
21540;DHT22;10931;52.164;5.518;2023-03-14T08:40:39;17.60;61.40
21540;DHT22;10931;52.164;5.518;2023-03-14T08:43:04;17.60;61.40
21540;DHT22;10931;52.164;5.518;2023-03-14T08:45:30;17.60;61.30
21540;DHT22;10931;52.164;5.518;2023-03-14T08:47:58;17.60;61.30
21540;DHT22;10931;52.164;5.518;2023-03-14T08:50:27;17.60;61.30
21540;DHT22;10931;52.164;5.518;2023-03-14T08:52:52;17.60;61.30
21540;DHT22;10931;52.164;5.518;2023-03-14T08:55:18;17.60;61.30
21540;DHT22;10931;52.164;5.518;2023-03-14T08:57:49;17.60;61.30
21540;DHT22;10931;52.164;5.518;2023-03-14T09:00:18;17.60;61.20
21540;DHT22;10931;52.164;5.518;2023-03-14T09:02:46;17.70;61.30
21540;DHT22;10931;52.164;5.518;2023-03-14T09:05:13;17.60;61.20
21540;DHT22;10931;52.164;5.518;2023-03-14T09:07:40;17.60;61.10
21540;DHT22;10931;52.164;5.518;2023-03-14T09:10:07;17.60;61.10
21540;DHT22;10931;52.164;5.518;2023-03-14T09:12:36;17.60;61.10
21540;DHT22;10931;52.164;5.518;2023-03-14T09:15:02;17.60;61.10
21540;DHT22;10931;52.164;5.518;2023-03-14T09:17:28;17.60;61.00
21540;DHT22;10931;52.164;5.518;2023-03-14T09:19:53;17.60;61.00
21540;DHT22;10931;52.164;5.518;2023-03-14T09:22:19;17.60;61.00
21540;DHT22;10931;52.164;5.518;2023-03-14T09:24:45;17.60;61.00
21540;DHT22;10931;52.164;5.518;2023-03-14T09:27:11;17.60;61.00
21540;DHT22;10931;52.164;5.518;2023-03-14T09:29:37;17.60;61.00
21540;DHT22;10931;52.164;5.518;2023-03-14T09:32:03;17.60;61.00
21540;DHT22;10931;52.164;5.518;2023-03-14T09:34:29;17.60;61.00
21540;DHT22;10931;52.164;5.518;2023-03-14T09:36:55;17.60;60.90
21540;DHT22;10931;52.164;5.518;2023-03-14T09:39:20;17.60;60.80
21540;DHT22;10931;52.164;5.518;2023-03-14T09:41:51;17.60;60.80
21540;DHT22;10931;52.164;5.518;2023-03-14T09:44:29;17.60;60.80
21540;DHT22;10931;52.164;5.518;2023-03-14T09:47:21;17.60;60.80
21540;DHT22;10931;52.164;5.518;2023-03-14T09:49:46;17.60;60.80
21540;DHT22;10931;52.164;5.518;2023-03-14T09:52:33;17.50;60.70
21540;DHT22;10931;52.164;5.518;2023-03-14T09:55:13;17.50;60.70
21540;DHT22;10931;52.164;5.518;2023-03-14T09:57:42;17.50;60.70
21540;DHT22;10931;52.164;5.518;2023-03-14T10:00:26;17.50;60.70
21540;DHT22;10931;52.164;5.518;2023-03-14T10:02:55;17.50;60.60
21540;DHT22;10931;52.164;5.518;2023-03-14T10:05:24;17.50;60.60
21540;DHT22;10931;52.164;5.518;2023-03-14T10:07:50;17.50;60.60
21540;DHT22;10931;52.164;5.518;2023-03-14T10:10:21;17.50;60.50
21540;DHT22;10931;52.164;5.518;2023-03-14T10:13:25;17.50;60.50
21540;DHT22;10931;52.164;5.518;2023-03-14T10:16:03;17.50;60.50
21540;DHT22;10931;52.164;5.518;2023-03-14T10:18:32;17.50;60.50
21540;DHT22;10931;52.164;5.518;2023-03-14T10:24:30;17.50;60.30
21540;DHT22;10931;52.164;5.518;2023-03-14T10:27:03;17.50;60.40
21540;DHT22;10931;52.164;5.518;2023-03-14T10:29:34;17.50;60.40
21540;DHT22;10931;52.164;5.518;2023-03-14T10:32:20;17.50;60.30
21540;DHT22;10931;52.164;5.518;2023-03-14T10:35:30;17.50;60.30
21540;DHT22;10931;52.164;5.518;2023-03-14T10:38:02;17.50;60.30
21540;DHT22;10931;52.164;5.518;2023-03-14T10:40:45;17.50;60.30
21540;DHT22;10931;52.164;5.518;2023-03-14T10:43:17;17.50;60.30
21540;DHT22;10931;52.164;5.518;2023-03-14T10:45:52;17.50;60.30
21540;DHT22;10931;52.164;5.518;2023-03-14T10:48:19;17.50;60.30
21540;DHT22;10931;52.164;5.518;2023-03-14T10:50:55;17.50;60.30
21540;DHT22;10931;52.164;5.518;2023-03-14T10:53:22;17.50;60.30
21540;DHT22;10931;52.164;5.518;2023-03-14T10:55:52;17.50;60.30
21540;DHT22;10931;52.164;5.518;2023-03-14T10:58:29;17.50;60.20
21540;DHT22;10931;52.164;5.518;2023-03-14T11:03:36;17.50;60.20
21540;DHT22;10931;52.164;5.518;2023-03-14T11:06:26;17.50;60.20
21540;DHT22;10931;52.164;5.518;2023-03-14T11:09:04;17.50;60.20
21540;DHT22;10931;52.164;5.518;2023-03-14T11:11:32;17.50;60.20
21540;DHT22;10931;52.164;5.518;2023-03-14T11:19:52;17.50;60.00
21540;DHT22;10931;52.164;5.518;2023-03-14T11:22:33;17.50;60.00
21540;DHT22;10931;52.164;5.518;2023-03-14T11:31:26;17.50;59.80
21540;DHT22;10931;52.164;5.518;2023-03-14T11:34:04;17.50;59.80
21540;DHT22;10931;52.164;5.518;2023-03-14T11:39:45;17.60;59.80
21540;DHT22;10931;52.164;5.518;2023-03-14T11:42:17;17.60;59.70
21540;DHT22;10931;52.164;5.518;2023-03-14T11:44:53;17.60;59.70
21540;DHT22;10931;52.164;5.518;2023-03-14T11:47:37;17.60;59.60
21540;DHT22;10931;52.164;5.518;2023-03-14T11:50:24;17.60;59.60
21540;DHT22;10931;52.164;5.518;2023-03-14T11:52:58;17.60;59.60
21540;DHT22;10931;52.164;5.518;2023-03-14T11:55:38;17.60;59.60
21540;DHT22;10931;52.164;5.518;2023-03-14T11:58:50;17.60;59.50
21540;DHT22;10931;52.164;5.518;2023-03-14T12:01:17;17.60;59.50
21540;DHT22;10931;52.164;5.518;2023-03-14T12:03:57;17.70;59.50
21540;DHT22;10931;52.164;5.518;2023-03-14T12:06:34;17.70;59.40
21540;DHT22;10931;52.164;5.518;2023-03-14T12:09:04;17.70;59.40
21540;DHT22;10931;52.164;5.518;2023-03-14T12:14:36;17.70;59.40
21540;DHT22;10931;52.164;5.518;2023-03-14T12:22:37;17.80;59.50
21540;DHT22;10931;52.164;5.518;2023-03-14T12:25:34;17.80;59.50
21540;DHT22;10931;52.164;5.518;2023-03-14T12:33:28;18.10;59.80
21540;DHT22;10931;52.164;5.518;2023-03-14T12:36:02;18.30;59.80
21540;DHT22;10931;52.164;5.518;2023-03-14T12:42:38;18.40;59.80
21540;DHT22;10931;52.164;5.518;2023-03-14T12:45:38;18.60;59.90
21540;DHT22;10931;52.164;5.518;2023-03-14T12:48:38;18.70;59.90
21540;DHT22;10931;52.164;5.518;2023-03-14T12:51:19;18.80;59.90
21540;DHT22;10931;52.164;5.518;2023-03-14T12:59:58;19.20;59.80
21540;DHT22;10931;52.164;5.518;2023-03-14T13:02:52;19.30;59.70
21540;DHT22;10931;52.164;5.518;2023-03-14T13:05:40;19.40;59.70
21540;DHT22;10931;52.164;5.518;2023-03-14T13:08:10;19.50;59.70
21540;DHT22;10931;52.164;5.518;2023-03-14T13:10:53;19.60;59.60
21540;DHT22;10931;52.164;5.518;2023-03-14T13:13:23;19.70;59.60
21540;DHT22;10931;52.164;5.518;2023-03-14T13:16:00;19.70;59.40
21540;DHT22;10931;52.164;5.518;2023-03-14T13:21:35;19.80;59.30
21540;DHT22;10931;52.164;5.518;2023-03-14T13:24:05;19.80;59.20
21540;DHT22;10931;52.164;5.518;2023-03-14T13:26:42;19.90;59.20
21540;DHT22;10931;52.164;5.518;2023-03-14T13:29:31;19.90;59.20
21540;DHT22;10931;52.164;5.518;2023-03-14T13:32:10;20.00;59.20
21540;DHT22;10931;52.164;5.518;2023-03-14T13:34:38;20.00;59.10
21540;DHT22;10931;52.164;5.518;2023-03-14T13:37:22;20.00;59.10
21540;DHT22;10931;52.164;5.518;2023-03-14T13:39:59;20.00;59.10
21540;DHT22;10931;52.164;5.518;2023-03-14T13:42:27;20.10;59.10
21540;DHT22;10931;52.164;5.518;2023-03-14T13:44:55;20.10;59.10
21540;DHT22;10931;52.164;5.518;2023-03-14T13:47:24;20.10;59.10
21540;DHT22;10931;52.164;5.518;2023-03-14T13:49:53;20.10;59.10
21540;DHT22;10931;52.164;5.518;2023-03-14T13:52:24;20.10;59.10
21540;DHT22;10931;52.164;5.518;2023-03-14T13:54:57;20.10;59.00
21540;DHT22;10931;52.164;5.518;2023-03-14T13:57:43;20.20;59.10
21540;DHT22;10931;52.164;5.518;2023-03-14T14:00:24;20.30;59.10
21540;DHT22;10931;52.164;5.518;2023-03-14T14:02:58;20.20;59.00
21540;DHT22;10931;52.164;5.518;2023-03-14T14:05:30;20.20;59.00
21540;DHT22;10931;52.164;5.518;2023-03-14T14:08:12;20.20;58.90
21540;DHT22;10931;52.164;5.518;2023-03-14T14:10:40;20.30;58.90
21540;DHT22;10931;52.164;5.518;2023-03-14T14:13:11;20.20;58.90
21540;DHT22;10931;52.164;5.518;2023-03-14T14:29:38;20.20;58.70
21540;DHT22;10931;52.164;5.518;2023-03-14T14:34:57;20.20;58.70
21540;DHT22;10931;52.164;5.518;2023-03-14T14:37:41;20.20;58.70
21540;DHT22;10931;52.164;5.518;2023-03-14T14:40:30;20.20;58.70
21540;DHT22;10931;52.164;5.518;2023-03-14T14:43:10;20.20;58.70
21540;DHT22;10931;52.164;5.518;2023-03-14T14:45:37;20.20;58.70
21540;DHT22;10931;52.164;5.518;2023-03-14T14:48:10;20.20;58.70
21540;DHT22;10931;52.164;5.518;2023-03-14T14:51:01;20.20;58.70
21540;DHT22;10931;52.164;5.518;2023-03-14T14:53:42;20.20;58.70
21540;DHT22;10931;52.164;5.518;2023-03-14T14:56:28;20.10;59.20
21540;DHT22;10931;52.164;5.518;2023-03-14T14:59:18;20.20;58.70
21540;DHT22;10931;52.164;5.518;2023-03-14T15:01:55;20.10;58.60
21540;DHT22;10931;52.164;5.518;2023-03-14T15:04:21;20.10;58.60
21540;DHT22;10931;52.164;5.518;2023-03-14T15:06:52;20.10;58.60
21540;DHT22;10931;52.164;5.518;2023-03-14T15:09:19;20.20;58.70
21540;DHT22;10931;52.164;5.518;2023-03-14T15:12:05;20.10;58.60
21540;DHT22;10931;52.164;5.518;2023-03-14T15:14:33;20.10;58.60
21540;DHT22;10931;52.164;5.518;2023-03-14T15:17:10;20.10;58.60
21540;DHT22;10931;52.164;5.518;2023-03-14T15:19:36;20.10;58.60
21540;DHT22;10931;52.164;5.518;2023-03-14T15:22:02;20.10;58.60
21540;DHT22;10931;52.164;5.518;2023-03-14T15:24:34;20.10;58.60
21540;DHT22;10931;52.164;5.518;2023-03-14T15:27:20;20.20;58.60
21540;DHT22;10931;52.164;5.518;2023-03-14T15:30:08;20.10;58.60
21540;DHT22;10931;52.164;5.518;2023-03-14T15:32:40;20.10;58.60
21540;DHT22;10931;52.164;5.518;2023-03-14T15:35:20;20.10;58.60
21540;DHT22;10931;52.164;5.518;2023-03-14T15:37:51;20.10;58.60
21540;DHT22;10931;52.164;5.518;2023-03-14T15:40:24;20.10;58.60
21540;DHT22;10931;52.164;5.518;2023-03-14T15:43:04;20.10;58.60
21540;DHT22;10931;52.164;5.518;2023-03-14T15:45:30;20.10;58.60
21540;DHT22;10931;52.164;5.518;2023-03-14T15:47:58;20.10;58.60
21540;DHT22;10931;52.164;5.518;2023-03-14T15:50:30;20.10;59.20
21540;DHT22;10931;52.164;5.518;2023-03-14T15:52:56;20.10;58.70
21540;DHT22;10931;52.164;5.518;2023-03-14T15:55:24;20.10;58.60
21540;DHT22;10931;52.164;5.518;2023-03-14T15:57:52;20.20;58.70
21540;DHT22;10931;52.164;5.518;2023-03-14T16:00:20;20.10;58.60
21540;DHT22;10931;52.164;5.518;2023-03-14T16:02:50;20.10;58.60
21540;DHT22;10931;52.164;5.518;2023-03-14T16:05:18;20.10;58.60
21540;DHT22;10931;52.164;5.518;2023-03-14T16:07:47;20.10;58.70
21540;DHT22;10931;52.164;5.518;2023-03-14T16:10:16;20.10;58.60
21540;DHT22;10931;52.164;5.518;2023-03-14T16:12:51;20.10;58.60
21540;DHT22;10931;52.164;5.518;2023-03-14T16:15:17;20.10;58.70
21540;DHT22;10931;52.164;5.518;2023-03-14T16:17:58;20.10;58.70
21540;DHT22;10931;52.164;5.518;2023-03-14T16:20:24;20.20;58.80
21540;DHT22;10931;52.164;5.518;2023-03-14T16:22:51;20.10;58.80
21540;DHT22;10931;52.164;5.518;2023-03-14T16:25:19;20.20;58.90
21540;DHT22;10931;52.164;5.518;2023-03-14T16:27:51;20.20;59.00
21540;DHT22;10931;52.164;5.518;2023-03-14T16:30:20;20.20;59.10
21540;DHT22;10931;52.164;5.518;2023-03-14T16:32:58;20.20;59.10
21540;DHT22;10931;52.164;5.518;2023-03-14T16:35:40;20.20;59.10
21540;DHT22;10931;52.164;5.518;2023-03-14T16:38:06;20.20;59.10
21540;DHT22;10931;52.164;5.518;2023-03-14T16:40:32;20.20;59.20
21540;DHT22;10931;52.164;5.518;2023-03-14T16:42:58;20.20;59.20
21540;DHT22;10931;52.164;5.518;2023-03-14T16:45:24;20.20;59.20
21540;DHT22;10931;52.164;5.518;2023-03-14T16:47:50;20.20;59.20
21540;DHT22;10931;52.164;5.518;2023-03-14T16:50:19;20.20;59.20
21540;DHT22;10931;52.164;5.518;2023-03-14T16:53:07;20.20;59.20
21540;DHT22;10931;52.164;5.518;2023-03-14T16:55:50;20.20;59.20
21540;DHT22;10931;52.164;5.518;2023-03-14T16:58:16;20.10;59.20
21540;DHT22;10931;52.164;5.518;2023-03-14T17:00:45;20.20;59.20
21540;DHT22;10931;52.164;5.518;2023-03-14T17:03:16;20.10;59.20
21540;DHT22;10931;52.164;5.518;2023-03-14T17:06:00;20.20;59.30
21540;DHT22;10931;52.164;5.518;2023-03-14T17:08:28;20.10;59.20
21540;DHT22;10931;52.164;5.518;2023-03-14T17:10:54;20.10;59.20
21540;DHT22;10931;52.164;5.518;2023-03-14T17:13:19;20.10;59.20
21540;DHT22;10931;52.164;5.518;2023-03-14T17:15:58;20.10;59.20
21540;DHT22;10931;52.164;5.518;2023-03-14T17:18:25;20.10;59.20
21540;DHT22;10931;52.164;5.518;2023-03-14T17:20:51;20.10;59.20